Archival Weather

Granbury Rgnl

Granbury, Texas (KGDJ)

Report from: Monday, January 29, 2024 5:35 AM UTC
Current time: Tuesday, June 18, 2024 1:03 PM UTC

Current weather – Weather history – Daily summaries
Weather forecast

Temperature4.7°C (40.5°F)
Dew point2.0°C (35.6°F)
Winds Calm
Visibility10 mi. (16.1 km)
Clouds Sky clear
Altimeter30.35 in.Hg (1028 mB)
Relative humidity83 %
Density altitude-1,633 ft. (-498 m)
Remarks Fully automated report
Automated weather observing station with precipitation discriminator
Flight conditions Visual Meteorological Conditions
Raw dataKGDJ 290535Z AUTO 00000KT 10SM CLR 05/02 A3035 RMK AO2 T00470020
An error has occurred. This application may no longer respond until reloaded. Reload 🗙